Time;durP1;ratioP1;P1;durP2;ratioP2;P2;SDS_P1;SDS_P2;PMS_P1;PMS_P2;Temp;Humidity;BMP_temperature;BMP_pressure;BME280_temperature;BME280_humidity;BME280_pressure;Samples;Min_cycle;Max_cycle;Signal;HPM_P1;HPM_P2
2022/11/29 00:00:57;;;;;;;144.53;35.67;;;;;;;7.02;100.00;149223.47;5029872;28;20562;-65
2022/11/29 00:03:23;;;;;;;144.27;34.57;;;;;;;6.98;100.00;149213.16;5028824;28;20038;-65
2022/11/29 00:05:48;;;;;;;157.63;35.73;;;;;;;7.01;100.00;149220.91;5030986;28;20036;-64
2022/11/29 00:08:13;;;;;;;140.87;34.47;;;;;;;7.01;100.00;149220.91;5028883;28;20021;-65
2022/11/29 00:10:39;;;;;;;152.27;34.60;;;;;;;7.05;100.00;149231.25;5032867;28;20028;-64
2022/11/29 00:13:04;;;;;;;128.80;33.97;;;;;;;7.04;100.00;149228.69;5030473;28;20240;-65
2022/11/29 00:15:33;;;;;;;134.23;34.27;;;;;;;7.08;100.00;149236.41;5035111;28;20037;-65
2022/11/29 00:17:59;;;;;;;162.13;36.90;;;;;;;7.04;100.00;149228.69;5036136;28;20100;-64
2022/11/29 00:20:24;;;;;;;150.77;35.67;;;;;;;7.04;100.00;149228.69;5033207;28;20702;-65
2022/11/29 00:22:49;;;;;;;137.40;35.53;;;;;;;7.05;100.00;149231.25;5032009;28;20078;-64
2022/11/29 00:25:15;;;;;;;144.77;35.73;;;;;;;7.05;100.00;149231.25;5037879;28;20045;-65
2022/11/29 00:27:40;;;;;;;155.73;35.33;;;;;;;7.05;100.00;149231.25;5035765;28;20037;-65
2022/11/29 00:30:06;;;;;;;149.83;36.80;;;;;;;7.04;100.00;149228.69;5028808;28;20029;-65
2022/11/29 00:32:32;;;;;;;133.60;34.27;;;;;;;7.10;100.00;149241.56;5030604;28;20030;-65
2022/11/29 00:34:57;;;;;;;152.03;35.23;;;;;;;7.10;100.00;149242.88;5030750;28;20025;-65
2022/11/29 00:37:22;;;;;;;130.87;33.47;;;;;;;7.12;100.00;149248.03;5027779;28;20108;-65
2022/11/29 00:39:48;;;;;;;145.40;34.60;;;;;;;7.11;100.00;149244.16;5035515;28;20555;-64
2022/11/29 00:42:14;;;;;;;135.57;33.67;;;;;;;7.11;100.00;149244.16;5034901;28;20010;-64
2022/11/29 00:44:39;;;;;;;159.50;36.30;;;;;;;7.10;100.00;149242.88;5034644;28;20496;-65
2022/11/29 00:47:05;;;;;;;155.03;35.43;;;;;;;7.09;100.00;149239.00;5030025;28;20029;-65
2022/11/29 00:49:30;;;;;;;156.90;34.13;;;;;;;7.11;100.00;149244.16;5032448;28;20030;-64
2022/11/29 00:51:55;;;;;;;187.23;37.33;;;;;;;7.10;100.00;149241.56;5030572;28;20488;-64
2022/11/29 00:54:21;;;;;;;163.50;34.40;;;;;;;7.08;100.00;149236.41;5029931;28;20025;-64
2022/11/29 00:56:46;;;;;;;177.10;36.47;;;;;;;7.07;100.00;149233.84;5031490;28;20478;-64
2022/11/29 00:59:12;;;;;;;185.83;35.90;;;;;;;7.04;100.00;149228.69;5029705;28;20407;-64
2022/11/29 01:01:37;;;;;;;179.73;35.87;;;;;;;7.07;100.00;149233.84;5029622;28;20017;-65
2022/11/29 01:04:03;;;;;;;186.70;36.47;;;;;;;7.07;100.00;149233.84;5033522;28;20100;-64
2022/11/29 01:06:28;;;;;;;204.37;38.40;;;;;;;7.09;100.00;149240.28;5032465;28;20032;-65
2022/11/29 01:08:53;;;;;;;238.93;39.83;;;;;;;7.10;100.00;149242.88;5036531;28;20021;-64
2022/11/29 01:11:21;;;;;;;244.50;39.80;;;;;;;7.05;100.00;149231.25;5031964;28;20491;-64
2022/11/29 01:13:47;;;;;;;240.13;41.00;;;;;;;7.03;100.00;149226.09;5033232;28;20031;-65
2022/11/29 01:16:14;;;;;;;235.23;40.50;;;;;;;7.02;100.00;149223.47;5030887;28;20469;-65
2022/11/29 01:18:39;;;;;;;219.03;38.07;;;;;;;7.03;100.00;149224.81;5028152;28;20025;-65
2022/11/29 01:21:11;;;;;;;291.80;42.63;;;;;;;7.00;100.00;149218.31;5024389;28;20551;-64
2022/11/29 01:23:37;;;;;;;182.83;37.87;;;;;;;7.06;100.00;149232.56;5027622;28;20025;-65
2022/11/29 01:26:07;;;;;;;340.33;43.90;;;;;;;7.08;100.00;149237.72;5030469;28;20025;-65
2022/11/29 01:28:33;;;;;;;239.13;39.63;;;;;;;7.08;100.00;149237.72;5031596;28;20094;-65
2022/11/29 01:31:14;;;;;;;300.73;42.23;;;;;;;7.07;100.00;149233.84;5027750;28;20033;-65
2022/11/29 01:33:41;;;;;;;298.38;41.60;;;;;;;7.05;100.00;149231.25;5030908;28;20468;-65
2022/11/29 01:36:07;;;;;;;261.77;39.77;;;;;;;7.05;100.00;149231.25;5026277;28;20381;-65
2022/11/29 01:38:33;;;;;;;305.43;41.07;;;;;;;7.07;100.00;149233.84;5027833;28;20388;-65
2022/11/29 01:41:14;;;;;;;341.83;44.23;;;;;;;7.09;100.00;149240.28;5028932;28;20566;-65
2022/11/29 01:43:58;;;;;;;344.23;43.67;;;;;;;7.07;100.00;149235.13;5034247;28;20040;-65
2022/11/29 01:46:24;;;;;;;341.23;44.10;;;;;;;7.10;100.00;149242.88;5031498;28;20649;-65
2022/11/29 01:48:54;;;;;;;386.50;45.87;;;;;;;7.09;100.00;149239.00;5029694;28;20063;-65
2022/11/29 01:51:20;;;;;;;326.93;43.27;;;;;;;7.10;100.00;149242.88;5033111;28;20478;-65
2022/11/29 01:53:46;;;;;;;287.73;43.20;;;;;;;7.08;100.00;149236.41;5030319;28;20057;-65
2022/11/29 01:56:14;;;;;;;266.33;42.03;;;;;;;7.10;100.00;149241.56;5028015;28;20423;-65
2022/11/29 01:58:42;;;;;;;380.33;46.20;;;;;;;7.09;100.00;149239.00;5030598;28;20543;-65
2022/11/29 02:01:08;;;;;;;311.93;44.20;;;;;;;7.08;100.00;149236.41;5027928;28;20028;-65
2022/11/29 02:03:34;;;;;;;322.70;43.37;;;;;;;7.07;100.00;149235.13;5032625;28;20029;-65
2022/11/29 02:06:00;;;;;;;374.87;45.73;;;;;;;7.05;100.00;149231.25;5027272;28;20025;-65
2022/11/29 02:08:35;;;;;;;285.60;44.03;;;;;;;7.07;100.00;149235.13;5030604;28;20049;-65
2022/11/29 02:11:06;;;;;;;280.07;41.97;;;;;;;7.09;100.00;149239.00;5028696;28;20033;-65
2022/11/29 02:13:56;;;;;;;345.95;46.03;;;;;;;7.05;100.00;149229.97;5031080;28;20059;-65
2022/11/29 02:16:30;;;;;;;341.70;46.00;;;;;;;7.08;100.00;149236.41;5026760;28;20021;-65
2022/11/29 02:18:56;;;;;;;294.53;42.80;;;;;;;7.07;100.00;149233.84;5025222;28;20030;-65
2022/11/29 02:21:35;;;;;;;345.87;44.93;;;;;;;7.09;100.00;149239.00;5022557;28;20025;-65
2022/11/29 02:24:29;;;;;;;267.90;40.07;;;;;;;7.10;100.00;149242.88;5029973;28;20119;-65
2022/11/29 02:27:26;;;;;;;339.20;43.93;;;;;;;7.09;100.00;149239.00;5025655;28;20575;-65
2022/11/29 02:30:22;;;;;;;391.73;45.93;;;;;;;7.08;100.00;149236.41;5024247;28;20533;-65
2022/11/29 02:33:08;;;;;;;281.80;41.67;;;;;;;7.08;100.00;149237.72;5030118;28;20049;-65
2022/11/29 02:35:55;;;;;;;276.90;41.97;;;;;;;7.09;100.00;149240.28;5026183;28;20112;-65
2022/11/29 02:38:45;;;;;;;306.43;43.63;;;;;;;7.05;100.00;149231.25;5029208;28;20060;-65
2022/11/29 02:41:35;;;;;;;319.50;43.20;;;;;;;7.07;100.00;149235.13;5028111;28;20472;-66
2022/11/29 02:44:12;;;;;;;220.73;38.20;;;;;;;7.10;100.00;149242.88;5029064;28;20477;-65
2022/11/29 02:46:54;;;;;;;305.67;44.93;;;;;;;7.09;100.00;149240.28;5023208;28;20035;-65
2022/11/29 02:49:29;;;;;;;378.83;46.70;;;;;;;7.07;100.00;149233.84;5023066;28;20449;-65
2022/11/29 02:52:00;;;;;;;314.43;42.77;;;;;;;7.07;100.00;149233.84;5026718;28;20163;-65
2022/11/29 02:55:03;;;;;;;324.05;44.50;;;;;;;7.07;100.00;149233.84;5027270;28;20037;-65
2022/11/29 02:57:47;;;;;;;274.80;43.23;;;;;;;7.10;100.00;149241.56;5027424;28;20076;-65
2022/11/29 03:00:17;;;;;;;353.63;46.30;;;;;;;7.11;100.00;149245.44;5021769;28;20038;-65
2022/11/29 03:03:01;;;;;;;329.80;44.60;;;;;;;7.08;100.00;149236.41;5024171;28;20113;-65
2022/11/29 03:05:40;;;;;;;262.87;43.70;;;;;;;7.09;100.00;149239.00;5028505;28;20385;-65
2022/11/29 03:08:27;;;;;;;279.10;43.97;;;;;;;7.10;100.00;149241.56;5021591;28;20037;-65
2022/11/29 03:10:58;;;;;;;251.00;40.80;;;;;;;7.11;100.00;149244.16;5028478;28;20030;-65
2022/11/29 03:13:33;;;;;;;218.00;41.53;;;;;;;7.11;100.00;149244.16;5030529;28;20037;-65
2022/11/29 03:16:11;;;;;;;188.30;38.50;;;;;;;7.12;100.00;149246.72;5019784;28;20034;-65
2022/11/29 03:19:10;;;;;;;221.77;38.37;;;;;;;7.12;100.00;149246.72;5024899;28;20029;-65
2022/11/29 03:21:44;;;;;;;247.03;39.57;;;;;;;7.06;100.00;149232.56;5025758;28;20116;-65
2022/11/29 03:24:30;;;;;;;243.87;41.53;;;;;;;7.09;100.00;149239.00;5030044;28;20366;-65
2022/11/29 03:27:05;;;;;;;212.33;39.37;;;;;;;7.09;100.00;149239.00;5025146;28;20104;-65
2022/11/29 03:29:55;;;;;;;259.40;42.37;;;;;;;7.12;100.00;149248.03;5029303;28;20075;-65
2022/11/29 03:32:44;;;;;;;221.97;41.43;;;;;;;7.13;100.00;149249.31;5033663;28;20378;-65
2022/11/29 03:35:17;;;;;;;193.67;40.03;;;;;;;7.14;100.00;149253.19;5033123;28;20053;-65
2022/11/29 03:37:57;;;;;;;196.83;39.53;;;;;;;7.15;100.00;149255.81;5025679;28;20401;-65
2022/11/29 03:40:49;;;;;;;155.33;38.07;;;;;;;7.15;100.00;149255.81;5030440;28;20128;-65
2022/11/29 03:43:25;;;;;;;168.68;36.80;;;;;;;7.17;100.00;149259.69;5033534;28;20029;-65
2022/11/29 03:45:56;;;;;;;172.30;38.87;;;;;;;7.13;100.00;149250.59;5023438;28;20370;-65
2022/11/29 03:48:31;;;;;;;201.32;39.58;;;;;;;7.17;100.00;149259.69;5032077;28;20117;-66
2022/11/29 03:51:21;;;;;;;193.83;41.43;;;;;;;7.17;100.00;149259.69;5029404;28;20033;-65
2022/11/29 03:54:06;;;;;;;178.10;39.43;;;;;;;7.15;100.00;149255.81;5030540;28;20029;-65
2022/11/29 03:56:35;;;;;;;200.40;41.13;;;;;;;7.13;100.00;149250.59;5027371;28;20033;-65
2022/11/29 03:59:27;;;;;;;183.60;40.23;;;;;;;7.15;100.00;149254.47;5030950;28;20497;-65
2022/11/29 04:02:15;;;;;;;168.47;40.23;;;;;;;7.15;100.00;149254.47;5028166;28;20390;-63
2022/11/29 04:04:58;;;;;;;139.90;36.50;;;;;;;7.14;100.00;149251.88;5030705;28;20072;-63
2022/11/29 04:07:51;;;;;;;145.93;37.77;;;;;;;7.12;100.00;149248.03;5022936;28;20018;-64
2022/11/29 04:10:33;;;;;;;144.00;38.87;;;;;;;7.14;100.00;149251.88;5026298;28;20040;-64
2022/11/29 04:13:16;;;;;;;;;;;;;;;7.14;100.00;149251.88;5029967;28;20082;-63
2022/11/29 04:15:45;;;;;;;121.77;35.70;;;;;;;7.11;100.00;149245.44;5026380;28;19917;-63
2022/11/29 04:18:29;;;;;;;143.00;36.73;;;;;;;7.11;100.00;149244.16;5032073;28;20482;-63
2022/11/29 04:21:04;;;;;;;127.27;37.17;;;;;;;7.15;100.00;149254.47;5028068;28;20019;-63
2022/11/29 04:23:58;;;;;;;130.23;36.03;;;;;;;7.15;100.00;149254.47;5027728;28;20034;-63
2022/11/29 04:26:44;;;;;;;115.70;35.57;;;;;;;7.16;100.00;149258.38;5003607;28;20046;-63
2022/11/29 04:29:20;;;;;;;124.67;34.33;;;;;;;7.15;100.00;149255.81;5025358;28;20567;-63
2022/11/29 04:32:01;;;;;;;126.30;37.13;;;;;;;7.14;100.00;149251.88;5029410;28;20116;-63
2022/11/29 04:34:32;;;;;;;117.28;35.35;;;;;;;7.11;100.00;149244.16;5030608;28;20640;-63
2022/11/29 04:37:23;;;;;;;114.45;36.63;;;;;;;7.11;100.00;149244.16;5032771;28;20025;-63
2022/11/29 04:40:13;;;;;;;137.83;37.93;;;;;;;7.11;100.00;149244.16;5030840;28;20112;-63
2022/11/29 04:42:58;;;;;;;140.60;37.30;;;;;;;7.12;100.00;149248.03;5026664;28;20041;-64
2022/11/29 04:45:42;;;;;;;148.63;37.73;;;;;;;7.12;100.00;149248.03;5024339;28;20037;-63
2022/11/29 04:48:44;;;;;;;143.30;37.90;;;;;;;7.13;100.00;149249.31;5030686;28;20030;-64
2022/11/29 04:51:09;;;;;;;145.43;39.03;;;;;;;7.10;100.00;149242.88;5032342;28;20021;-64
2022/11/29 04:53:37;;;;;;;160.00;38.97;;;;;;;7.13;100.00;149250.59;5030649;28;20095;-63
2022/11/29 04:56:16;;;;;;;152.53;39.90;;;;;;;7.16;100.00;149258.38;5029092;28;20649;-64
2022/11/29 04:58:50;;;;;;;166.77;40.30;;;;;;;7.13;100.00;149250.59;5030796;28;20064;-63
2022/11/29 05:01:52;;;;;;;178.37;39.97;;;;;;;7.18;100.00;149262.25;5025281;28;20037;-63
2022/11/29 05:04:30;;;;;;;178.68;40.33;;;;;;;7.22;100.00;149272.56;5034392;28;20128;-63
2022/11/29 05:07:10;;;;;;;172.97;40.07;;;;;;;7.18;100.00;149262.25;5029241;28;20104;-63
2022/11/29 05:09:41;;;;;;;190.20;39.73;;;;;;;7.19;100.00;149264.84;5028505;28;20032;-63
2022/11/29 05:12:06;;;;;;;240.67;43.30;;;;;;;7.16;100.00;149257.09;5031280;28;20627;-64
2022/11/29 05:14:54;;;;;;;193.50;40.67;;;;;;;7.17;100.00;149259.69;5030057;28;20025;-63
2022/11/29 05:17:39;;;;;;;270.40;42.43;;;;;;;7.17;100.00;149259.69;5024730;28;20045;-63
2022/11/29 05:20:10;;;;;;;247.73;42.07;;;;;;;7.14;100.00;149251.88;5027966;28;20032;-63
2022/11/29 05:22:52;;;;;;;265.33;42.47;;;;;;;7.12;100.00;149246.72;5031525;28;20056;-63
2022/11/29 05:25:33;;;;;;;359.43;45.87;;;;;;;7.15;100.00;149254.47;5027599;28;20033;-63
2022/11/29 05:28:12;;;;;;;316.80;43.87;;;;;;;7.14;100.00;149251.88;5029490;28;20056;-63
2022/11/29 05:31:10;;;;;;;390.13;46.40;;;;;;;7.16;100.00;149257.09;5021415;28;20051;-63
2022/11/29 05:33:56;;;;;;;356.33;45.10;;;;;;;7.14;100.00;149251.88;5026276;28;20045;-63
2022/11/29 05:36:46;;;;;;;364.67;44.63;;;;;;;7.15;100.00;149254.47;5024234;28;20021;-63
2022/11/29 05:39:30;;;;;;;463.07;50.63;;;;;;;7.14;100.00;149253.19;5028789;28;20029;-63
2022/11/29 05:42:04;;;;;;;353.90;44.60;;;;;;;7.13;100.00;149249.31;5027754;28;20074;-63
2022/11/29 05:45:16;;;;;;;365.10;47.00;;;;;;;7.15;100.00;149254.47;5027688;28;20056;-63
2022/11/29 05:47:51;;;;;;;219.48;40.40;;;;;;;7.16;100.00;149257.09;5023510;28;20046;-63
2022/11/29 05:50:52;;;;;;;367.40;45.97;;;;;;;7.18;100.00;149262.25;5025719;28;20068;-64
2022/11/29 05:53:23;;;;;;;355.00;46.00;;;;;;;7.19;100.00;149266.13;5029906;28;20362;-63
2022/11/29 05:55:54;;;;;;;322.27;44.70;;;;;;;7.20;100.00;149267.41;5026677;28;20038;-63
2022/11/29 05:58:53;;;;;;;256.58;43.10;;;;;;;7.18;100.00;149262.25;5018848;28;20458;-64
2022/11/29 06:01:25;;;;;;;272.30;42.13;;;;;;;7.17;100.00;149260.97;5029330;28;20049;-64
2022/11/29 06:04:05;;;;;;;338.73;45.60;;;;;;;7.22;100.00;149273.84;5022280;28;20470;-63
2022/11/29 06:07:13;;;;;;;433.63;49.53;;;;;;;7.25;100.00;149280.31;5023317;28;20046;-63
2022/11/29 06:09:54;;;;;;;403.63;47.27;;;;;;;7.21;100.00;149270.00;5025075;28;20450;-63
2022/11/29 06:12:22;;;;;;;395.77;46.20;;;;;;;7.23;100.00;149276.44;5024600;28;20026;-63
2022/11/29 06:14:59;;;;;;;419.63;48.30;;;;;;;7.23;100.00;149276.44;5028075;28;20033;-63
2022/11/29 06:17:45;;;;;;;412.10;48.10;;;;;;;7.23;100.00;149276.44;5022058;28;20071;-63
2022/11/29 06:20:18;;;;;;;406.20;47.87;;;;;;;7.24;100.00;149277.72;5021242;28;20060;-63
2022/11/29 06:22:56;;;;;;;399.60;48.90;;;;;;;7.24;100.00;149277.72;5029125;28;20080;-63
2022/11/29 06:26:03;;;;;;;502.53;52.90;;;;;;;7.29;100.00;149290.66;5026913;28;20029;-63
2022/11/29 06:28:50;;;;;;;349.17;43.80;;;;;;;7.26;100.00;149282.88;5026589;28;20037;-63
2022/11/29 06:31:24;;;;;;;388.00;46.57;;;;;;;7.23;100.00;149275.16;5025088;28;20058;-63
2022/11/29 06:33:57;;;;;;;300.87;43.50;;;;;;;7.27;100.00;149285.50;5026289;28;20072;-63
2022/11/29 06:36:38;;;;;;;407.03;48.67;;;;;;;7.27;100.00;149285.50;5023030;28;20053;-63
2022/11/29 06:39:04;;;;;;;373.45;46.55;;;;;;;7.24;100.00;149277.72;5019082;28;20049;-64
2022/11/29 06:41:30;;;;;;;410.00;48.67;;;;;;;7.24;100.00;149277.72;5030549;28;20049;-63
2022/11/29 06:43:56;;;;;;;401.63;49.50;;;;;;;7.27;100.00;149286.81;5021222;28;20025;-63
2022/11/29 06:46:39;;;;;;;264.37;44.47;;;;;;;7.29;100.00;149290.66;5026757;28;20029;-63
2022/11/29 06:49:11;;;;;;;412.93;48.23;;;;;;;7.27;100.00;149286.81;5016536;28;20349;-63
2022/11/29 06:52:03;;;;;;;420.42;49.13;;;;;;;7.31;100.00;149295.84;5021771;28;20530;-63
2022/11/29 06:54:54;;;;;;;410.90;49.90;;;;;;;7.30;100.00;149293.25;5026733;28;20029;-63
2022/11/29 06:57:39;;;;;;;485.77;52.17;;;;;;;7.33;100.00;149301.00;5025275;28;20037;-63
2022/11/29 07:00:21;;;;;;;458.60;50.30;;;;;;;7.31;100.00;149297.13;5028022;28;20091;-63
2022/11/29 07:03:05;;;;;;;;;;;;;;;7.32;100.00;149298.41;5021339;28;20163;-62
2022/11/29 07:05:35;;;;;;;385.30;46.10;;;;;;;7.30;100.00;149293.25;5028492;28;20599;-63
2022/11/29 07:08:05;;;;;;;348.93;45.57;;;;;;;7.30;100.00;149293.25;5023067;28;20025;-63
2022/11/29 07:10:37;;;;;;;293.17;43.80;;;;;;;7.29;100.00;149290.66;5017483;28;20033;-63
2022/11/29 07:13:02;;;;;;;319.77;47.35;;;;;;;7.30;100.00;149294.53;5024562;28;20025;-63
2022/11/29 07:15:28;;;;;;;432.63;50.67;;;;;;;7.37;100.00;149310.00;5034125;28;20488;-63
2022/11/29 07:17:54;;;;;;;295.80;46.37;;;;;;;7.33;100.00;149301.00;5032832;28;20041;-63
2022/11/29 07:20:19;;;;;;;341.57;47.40;;;;;;;7.32;100.00;149298.41;5033857;28;20022;-63
2022/11/29 07:23:10;;;;;;;429.77;50.07;;;;;;;7.37;100.00;149311.31;5033776;28;20025;-63
2022/11/29 07:26:00;;;;;;;346.43;46.23;;;;;;;7.37;100.00;149310.00;5033952;28;20431;-63
2022/11/29 07:28:37;;;;;;;253.57;43.37;;;;;;;7.33;100.00;149301.00;5033680;28;20048;-63
2022/11/29 07:31:12;;;;;;;418.10;50.23;;;;;;;7.33;100.00;149301.00;5030284;28;20076;-63
2022/11/29 07:33:46;;;;;;;331.50;49.00;;;;;;;7.38;100.00;149312.59;5033755;28;20029;-62
2022/11/29 07:36:33;;;;;;;288.87;46.20;;;;;;;7.41;100.00;149321.66;5031174;28;20060;-62
2022/11/29 07:39:09;;;;;;;315.87;46.20;;;;;;;7.42;100.00;149322.97;5033613;28;20049;-63
2022/11/29 07:41:38;;;;;;;367.37;48.23;;;;;;;7.42;100.00;149324.25;5033571;28;20049;-63
2022/11/29 07:44:22;;;;;;;322.07;46.10;;;;;;;7.42;100.00;149322.97;5033449;28;20021;-63
2022/11/29 07:46:47;;;;;;;326.50;46.23;;;;;;;7.40;100.00;149319.09;5033504;28;20025;-62
2022/11/29 07:49:13;;;;;;;419.20;50.33;;;;;;;7.44;100.00;149329.41;5033294;28;20642;-62
2022/11/29 07:51:38;;;;;;;355.03;48.00;;;;;;;7.45;100.00;149330.69;5029972;28;20124;-63
2022/11/29 07:54:04;;;;;;;453.30;50.47;;;;;;;7.48;100.00;149339.72;5033143;28;20040;-64
2022/11/29 07:56:30;;;;;;;423.80;48.77;;;;;;;7.51;100.00;149347.50;5033395;28;20029;-63
2022/11/29 07:58:55;;;;;;;383.27;48.37;;;;;;;7.55;100.00;149357.84;5033085;28;20049;-63
2022/11/29 08:01:20;;;;;;;386.90;47.60;;;;;;;7.63;100.00;149378.53;5033195;28;20083;-63
2022/11/29 08:03:46;;;;;;;345.30;46.97;;;;;;;7.59;100.00;149368.16;5032991;28;20029;-63
2022/11/29 08:06:11;;;;;;;349.83;46.60;;;;;;;7.58;100.00;149365.56;5033337;28;20405;-63
2022/11/29 08:08:37;;;;;;;338.30;45.03;;;;;;;7.58;100.00;149365.56;5028526;28;20100;-63
2022/11/29 08:11:10;;;;;;;321.03;43.77;;;;;;;7.54;100.00;149355.25;5032990;28;20033;-62
2022/11/29 08:13:36;;;;;;;261.53;42.57;;;;;;;7.56;100.00;149359.13;5032937;28;20030;-62
2022/11/29 08:16:01;;;;;;;319.37;43.77;;;;;;;7.54;100.00;149353.97;5032217;28;20491;-63
2022/11/29 08:18:26;;;;;;;281.90;43.73;;;;;;;7.57;100.00;149363.00;5032924;28;20063;-63
2022/11/29 08:20:52;;;;;;;264.50;41.97;;;;;;;7.60;100.00;149370.72;5032627;28;20095;-63
2022/11/29 08:23:17;;;;;;;323.23;44.67;;;;;;;7.62;100.00;149375.88;5032997;28;20096;-63
2022/11/29 08:25:44;;;;;;;223.10;39.80;;;;;;;7.58;100.00;149365.56;5024582;28;20025;-62
2022/11/29 08:28:10;;;;;;;198.60;37.60;;;;;;;7.62;100.00;149375.88;5032566;28;20033;-63
2022/11/29 08:30:36;;;;;;;255.37;39.97;;;;;;;7.63;100.00;149378.53;5032400;28;20371;-63
2022/11/29 08:33:01;;;;;;;221.07;39.13;;;;;;;7.65;100.00;149382.38;5032820;28;20029;-63
2022/11/29 08:35:26;;;;;;;282.17;42.93;;;;;;;7.62;100.00;149375.88;5032317;28;20018;-63
2022/11/29 08:37:53;;;;;;;256.37;40.83;;;;;;;7.67;100.00;149386.25;5032671;28;20496;-63
2022/11/29 08:40:18;;;;;;;224.40;39.93;;;;;;;7.69;100.00;149391.41;5032622;28;20021;-63
2022/11/29 08:42:44;;;;;;;127.07;31.20;;;;;;;7.67;100.00;149386.25;5032067;28;20022;-63
2022/11/29 08:45:10;;;;;;;161.30;36.17;;;;;;;7.71;100.00;149396.56;5031854;28;20017;-64
2022/11/29 08:47:36;;;;;;;166.33;35.90;;;;;;;7.69;100.00;149391.41;5032698;28;20179;-63
2022/11/29 08:50:11;;;;;;;144.33;34.57;;;;;;;7.73;100.00;149401.75;5032207;28;20108;-63
2022/11/29 08:55:30;;;;;;;154.70;34.47;;;;;;;7.77;100.00;149413.41;5032037;28;20032;-63
2022/11/29 08:58:04;;;;;;;170.67;36.70;;;;;;;7.77;100.00;149413.41;5031844;28;20083;-63
2022/11/29 09:00:31;;;;;;;180.03;36.10;;;;;;;7.77;100.00;149412.09;5031014;28;20017;-63
2022/11/29 09:03:58;;;;;;;184.77;36.50;;;;;;;7.80;100.00;149421.13;5028407;28;20017;-63
2022/11/29 09:05:42;;;;;;;235.17;39.20;;;;;;;7.82;100.00;149425.00;5031909;28;20124;-63
2022/11/29 09:08:07;;;;;;;142.23;34.67;;;;;;;7.84;100.00;149430.16;5032361;28;20104;-64
2022/11/29 09:10:33;;;;;;;180.27;35.10;;;;;;;7.84;100.00;149430.16;5032023;28;20473;-63
2022/11/29 09:12:58;;;;;;;162.30;35.07;;;;;;;7.84;100.00;149431.47;5032021;28;20017;-64
2022/11/29 09:15:24;;;;;;;141.87;34.77;;;;;;;7.86;100.00;149435.31;5032196;28;20035;-63
2022/11/29 09:17:49;;;;;;;186.17;36.27;;;;;;;7.90;100.00;149445.69;5031230;28;20489;-64
2022/11/29 09:20:15;;;;;;;152.00;34.20;;;;;;;7.97;100.00;149463.75;5031775;28;20028;-63
2022/11/29 09:22:40;;;;;;;145.30;33.33;;;;;;;7.97;100.00;149462.47;5031607;28;20025;-63
2022/11/29 09:25:06;;;;;;;117.40;32.10;;;;;;;8.04;100.00;149480.59;5031613;28;20026;-63
2022/11/29 09:27:31;;;;;;;114.90;31.00;;;;;;;8.06;100.00;149487.03;5031472;28;20036;-63
2022/11/29 09:29:56;;;;;;;142.93;32.57;;;;;;;8.03;100.00;149479.28;5031376;28;20116;-64
2022/11/29 09:32:22;;;;;;;139.47;32.83;;;;;;;8.05;100.00;149484.44;5031940;28;20053;-63
2022/11/29 09:34:47;;;;;;;134.37;32.60;;;;;;;8.08;100.00;149492.19;5030841;28;20072;-64
2022/11/29 09:37:13;;;;;;;134.00;33.00;;;;;;;8.11;100.00;149499.94;5031756;28;20021;-63
2022/11/29 09:39:40;;;;;;;132.20;32.90;;;;;;;8.13;100.00;149503.88;5031564;28;20025;-64
2022/11/29 09:42:23;;;;;;;136.00;31.67;;;;;;;8.16;100.00;149511.59;5031496;28;20021;-63
2022/11/29 09:45:13;;;;;;;129.13;33.00;;;;;;;8.16;100.00;149512.88;5031601;28;20079;-64
2022/11/29 09:47:38;;;;;;;107.37;29.03;;;;;;;8.16;100.00;149512.88;5031450;28;20029;-63
2022/11/29 09:50:19;;;;;;;116.43;29.70;;;;;;;8.18;100.00;149516.75;5030769;28;20409;-63
2022/11/29 09:53:15;;;;;;;119.40;30.27;;;;;;;8.21;100.00;149525.81;5031201;28;20377;-63
2022/11/29 09:55:54;;;;;;;135.60;30.77;;;;;;;8.30;100.00;149547.78;5030911;28;20112;-63
2022/11/29 09:58:25;;;;;;;142.90;31.70;;;;;;;8.44;100.00;149584.03;5030969;28;20025;-63
2022/11/29 10:00:57;;;;;;;119.50;30.87;;;;;;;8.47;100.00;149590.47;5031306;28;20021;-63
2022/11/29 10:03:35;;;;;;;124.37;30.53;;;;;;;8.49;100.00;149597.00;5031203;28;20492;-63
2022/11/29 10:06:12;;;;;;;112.60;29.23;;;;;;;8.53;100.00;149606.03;5030777;28;20067;-63
2022/11/29 10:08:48;;;;;;;146.93;29.43;;;;;;;8.51;100.00;149600.84;5027082;28;20109;-63
2022/11/29 10:11:40;;;;;;;137.50;28.70;;;;;;;8.55;100.00;149611.19;5030911;28;20036;-63
2022/11/29 10:14:15;;;;;;;115.93;27.38;;;;;;;8.56;100.00;149612.47;5030931;28;20030;-63
2022/11/29 10:16:49;;;;;;;115.57;29.87;;;;;;;8.49;100.00;149595.69;5030527;28;20087;-63
2022/11/29 10:19:24;;;;;;;119.93;28.57;;;;;;;8.58;100.00;149618.94;5030684;28;20014;-63
2022/11/29 10:22:34;;;;;;;124.77;29.13;;;;;;;8.60;100.00;149624.13;5030681;28;20446;-64
2022/11/29 10:25:02;;;;;;;138.50;30.17;;;;;;;8.62;100.00;149629.31;5030258;28;20041;-63
2022/11/29 10:27:28;;;;;;;103.67;27.00;;;;;;;8.64;100.00;149634.47;5030619;28;20100;-63
2022/11/29 10:29:55;;;;;;;105.63;26.83;;;;;;;8.64;100.00;149634.47;5030556;28;20474;-63
2022/11/29 10:32:24;;;;;;;101.47;26.13;;;;;;;8.61;100.00;149625.44;5030322;28;20431;-63
2022/11/29 10:34:50;;;;;;;92.63;26.10;;;;;;;8.62;100.00;149629.31;5030402;28;20028;-64
2022/11/29 10:37:19;;;;;;;86.53;25.17;;;;;;;8.66;100.00;149638.34;5030840;28;20055;-63
2022/11/29 10:40:00;;;;;;;87.53;23.87;;;;;;;8.59;100.00;149621.50;5030532;28;20393;-63
2022/11/29 10:45:28;;;;;;;96.43;25.57;;;;;;;8.51;100.00;149600.84;5030297;28;20560;-63
2022/11/29 10:48:02;;;;;;;99.10;26.13;;;;;;;8.53;100.00;149606.03;5030247;28;20104;-63
2022/11/29 10:50:31;;;;;;;123.27;27.30;;;;;;;8.54;100.00;149608.59;5028473;28;20022;-63
2022/11/29 10:53:03;;;;;;;146.30;29.03;;;;;;;8.55;100.00;149611.19;5029097;28;20531;-63
2022/11/29 10:55:35;;;;;;;154.17;30.60;;;;;;;8.57;100.00;149616.34;5030214;28;20026;-63
2022/11/29 10:58:14;;;;;;;128.38;27.25;;;;;;;8.64;100.00;149634.47;5030114;28;20493;-63
2022/11/29 11:00:50;;;;;;;122.07;27.10;;;;;;;8.64;100.00;149634.47;5030444;28;20469;-63
2022/11/29 11:03:24;;;;;;;143.37;28.70;;;;;;;8.66;100.00;149638.34;5029952;28;20047;-63
2022/11/29 11:06:02;;;;;;;128.47;27.77;;;;;;;8.73;100.00;149657.75;5029872;28;20025;-63
2022/11/29 11:08:30;;;;;;;112.53;27.33;;;;;;;8.81;100.00;149678.41;5030101;28;20555;-64
2022/11/29 11:10:56;;;;;;;108.93;27.67;;;;;;;8.86;100.00;149688.78;5030444;28;20367;-63
2022/11/29 11:13:28;;;;;;;122.60;26.67;;;;;;;8.84;100.00;149683.59;5030606;28;20026;-63
2022/11/29 11:16:09;;;;;;;130.85;28.42;;;;;;;8.92;100.00;149704.28;5029785;28;20025;-63
2022/11/29 11:18:36;;;;;;;99.30;25.67;;;;;;;8.97;100.00;149717.25;5030132;28;20052;-64
2022/11/29 11:21:02;;;;;;;88.70;25.10;;;;;;;8.97;100.00;149718.56;5030219;28;20025;-64
2022/11/29 11:23:32;;;;;;;92.37;24.70;;;;;;;8.99;100.00;149722.41;5030478;28;20131;-63
2022/11/29 11:26:08;;;;;;;104.53;25.97;;;;;;;8.98;100.00;149719.84;5030385;28;20583;-62
2022/11/29 11:28:45;;;;;;;89.87;24.17;;;;;;;9.03;100.00;149732.75;5029804;28;20028;-62
2022/11/29 11:31:12;;;;;;;86.60;24.57;;;;;;;9.04;100.00;149735.34;5029287;28;20653;-63
2022/11/29 11:33:40;;;;;;;86.80;25.40;;;;;;;8.97;100.00;149717.25;5029115;28;20100;-63
2022/11/29 11:36:26;;;;;;;113.37;27.63;;;;;;;9.01;100.00;149728.88;5030109;28;20068;-63
2022/11/29 11:38:56;;;;;;;123.63;27.73;;;;;;;9.07;100.00;149743.09;5030195;28;20102;-63
2022/11/29 11:44:39;;;;;;;92.60;24.17;;;;;;;9.17;100.00;149767.69;5029672;28;20615;-63